← Previous May 28, 2024 4:20 AM

FTUS43 KOAX 260525
TAFLNK
TAF
KLNK 260525Z 2606/2706 16011KT P6SM -SHRA OVC070
     FM260900 13006KT P6SM BKN070
     FM261100 30006KT P6SM BKN045
     FM261300 33007KT P6SM BKN015
     FM261800 34010KT P6SM SCT040
     FM270000 31006KT P6SM FEW120=